Time;durP1;ratioP1;P1;durP2;ratioP2;P2;SDS_P1;SDS_P2;PMS_P1;PMS_P2;Temp;Humidity;BMP_temperature;BMP_pressure;BME280_temperature;BME280_humidity;BME280_pressure;Samples;Min_cycle;Max_cycle;Signal;HPM_P1;HPM_P2
2022/11/13 00:04:59;;;;;;;12.30;5.87;;;9.40;47.60;;;;;;10386574;28;20218;-71
2022/11/13 00:10:04;;;;;;;8.50;5.60;;;9.40;47.70;;;;;;10384673;28;20221;-72
2022/11/13 00:15:07;;;;;;;11.70;5.93;;;9.40;47.70;;;;;;10387490;28;20299;-71
2022/11/13 00:20:11;;;;;;;7.43;6.00;;;9.30;47.60;;;;;;10384782;28;20253;-71
2022/11/13 00:25:15;;;;;;;6.30;5.70;;;9.30;47.60;;;;;;10380836;28;20237;-71
2022/11/13 00:30:19;;;;;;;7.77;6.40;;;9.30;47.70;;;;;;10386624;28;20225;-71
2022/11/13 00:35:22;;;;;;;14.30;7.30;;;9.30;47.40;;;;;;10381068;28;20309;-71
2022/11/13 00:40:27;;;;;;;24.90;8.03;;;9.30;47.00;;;;;;10379236;28;20706;-71
2022/11/13 00:45:30;;;;;;;7.03;6.43;;;9.20;47.00;;;;;;10378693;28;20245;-71
2022/11/13 00:50:33;;;;;;;7.77;7.07;;;9.10;47.30;;;;;;10381222;28;20228;-71
2022/11/13 00:55:37;;;;;;;6.87;6.27;;;9.10;47.50;;;;;;10375468;28;20225;-71
2022/11/13 01:00:41;;;;;;;7.87;7.13;;;9.00;47.40;;;;;;10380374;28;20226;-71
2022/11/13 01:05:46;;;;;;;7.03;6.50;;;9.00;47.60;;;;;;10388935;28;20229;-71
2022/11/13 01:10:50;;;;;;;7.13;6.43;;;9.00;47.90;;;;;;10382071;28;20229;-71
2022/11/13 01:15:55;;;;;;;6.73;6.13;;;9.00;47.40;;;;;;10377280;28;20237;-71
2022/11/13 01:21:03;;;;;;;7.80;7.10;;;9.00;47.30;;;;;;10381304;28;20222;-71
2022/11/13 01:26:11;;;;;;;7.10;6.37;;;9.00;47.30;;;;;;10400581;28;20231;-71
2022/11/13 01:31:16;;;;;;;7.00;6.37;;;9.00;47.20;;;;;;10384809;28;20225;-71
2022/11/13 01:36:21;;;;;;;6.93;6.33;;;9.00;47.20;;;;;;10380129;28;20237;-71
2022/11/13 01:41:28;;;;;;;7.27;5.97;;;8.90;46.80;;;;;;10403520;28;20234;-71
2022/11/13 01:46:32;;;;;;;6.60;6.03;;;8.90;46.80;;;;;;10379552;28;20233;-71
2022/11/13 01:51:38;;;;;;;7.03;6.43;;;8.80;46.70;;;;;;10383437;28;20222;-71
2022/11/13 01:56:43;;;;;;;8.87;6.70;;;8.80;46.90;;;;;;10379419;28;20230;-71
2022/11/13 02:01:46;;;;;;;6.60;6.00;;;8.80;47.60;;;;;;10377074;28;20218;-71
2022/11/13 02:06:54;;;;;;;6.73;5.97;;;8.70;47.00;;;;;;10381103;28;20744;-71
2022/11/13 02:11:59;;;;;;;5.57;5.17;;;8.70;47.20;;;;;;10379689;28;20256;-71
2022/11/13 02:17:09;;;;;;;5.17;4.77;;;8.70;47.00;;;;;;10379142;28;20641;-71
2022/11/13 02:22:20;;;;;;;5.93;5.43;;;8.70;46.90;;;;;;10380614;28;20222;-71
2022/11/13 02:27:30;;;;;;;8.33;5.97;;;8.70;46.90;;;;;;10382445;28;20288;-71
2022/11/13 02:32:33;;;;;;;5.77;5.33;;;8.70;46.90;;;;;;10372782;28;20222;-71
2022/11/13 02:37:36;;;;;;;5.70;5.20;;;8.60;46.90;;;;;;10381727;28;20221;-71
2022/11/13 02:42:40;;;;;;;6.80;6.20;;;8.70;47.00;;;;;;10386171;28;20237;-71
2022/11/13 02:47:44;;;;;;;6.63;6.13;;;8.60;47.10;;;;;;10386087;28;20230;-71
2022/11/13 02:52:47;;;;;;;6.23;5.73;;;8.60;47.00;;;;;;10388234;28;20234;-71
2022/11/13 02:57:52;;;;;;;24.03;6.30;;;8.60;46.80;;;;;;10389049;28;20233;-74
2022/11/13 03:02:55;;;;;;;9.83;6.00;;;8.60;46.70;;;;;;10388138;28;20222;-74
2022/11/13 03:07:58;;;;;;;6.40;5.90;;;8.50;46.50;;;;;;10381894;28;20241;-68
2022/11/13 03:13:03;;;;;;;5.87;5.23;;;8.40;46.40;;;;;;10351669;28;20227;-69
2022/11/13 03:18:08;;;;;;;8.73;4.97;;;8.40;46.50;;;;;;10347357;28;20638;-68
2022/11/13 03:23:11;;;;;;;8.23;5.93;;;8.30;46.70;;;;;;10346699;28;20223;-69
2022/11/13 03:28:15;;;;;;;5.67;5.20;;;8.30;46.60;;;;;;10339664;28;20238;-69
2022/11/13 03:33:18;;;;;;;17.13;5.27;;;8.30;46.50;;;;;;10341311;28;20242;-71
2022/11/13 03:38:21;;;;;;;6.20;4.83;;;8.30;46.30;;;;;;10351048;28;20276;-71
2022/11/13 03:43:26;;;;;;;11.33;4.90;;;8.20;46.30;;;;;;10388574;28;20719;-71
2022/11/13 03:48:29;;;;;;;12.40;4.87;;;8.10;46.20;;;;;;10385406;28;20233;-71
2022/11/13 03:53:33;;;;;;;10.33;4.80;;;8.00;46.20;;;;;;10381573;28;20231;-71
2022/11/13 03:58:37;;;;;;;16.50;5.23;;;8.00;46.20;;;;;;10384098;28;20225;-71
2022/11/13 04:03:45;;;;;;;9.90;4.50;;;7.90;46.10;;;;;;10388338;28;20244;-71
2022/11/13 04:08:48;;;;;;;5.93;4.87;;;7.80;46.10;;;;;;10385107;28;20218;-71
2022/11/13 04:13:53;;;;;;;10.57;4.90;;;7.70;46.20;;;;;;10385263;28;20237;-71
2022/11/13 04:18:56;;;;;;;5.13;4.73;;;7.70;46.20;;;;;;10386424;28;20228;-71
2022/11/13 04:23:59;;;;;;;6.10;4.93;;;7.60;46.30;;;;;;10383771;28;20230;-71
2022/11/13 04:29:03;;;;;;;5.83;4.87;;;7.60;46.40;;;;;;10386455;28;20272;-71
2022/11/13 04:34:08;;;;;;;4.87;4.47;;;7.50;46.50;;;;;;10379335;28;20941;-71
2022/11/13 04:39:11;;;;;;;4.80;4.33;;;7.50;46.60;;;;;;10381757;28;20221;-71
2022/11/13 04:44:15;;;;;;;15.80;5.03;;;7.50;46.70;;;;;;10382832;28;20234;-71
2022/11/13 04:49:19;;;;;;;5.67;4.80;;;7.50;46.60;;;;;;10379327;28;20223;-71
2022/11/13 04:54:22;;;;;;;7.07;4.30;;;7.50;46.50;;;;;;10383268;28;20250;-71
2022/11/13 04:59:32;;;;;;;5.07;4.67;;;7.50;46.40;;;;;;10380815;28;20229;-71
2022/11/13 05:04:35;;;;;;;4.53;3.80;;;7.50;46.50;;;;;;10377213;28;20225;-71
2022/11/13 05:09:38;;;;;;;4.60;4.20;;;7.40;46.50;;;;;;10380548;28;21007;-71
2022/11/13 05:14:42;;;;;;;4.37;4.03;;;7.40;46.50;;;;;;10386696;28;20236;-71
2022/11/13 05:19:46;;;;;;;8.20;3.77;;;7.40;46.60;;;;;;10383772;28;20260;-71
2022/11/13 05:24:49;;;;;;;7.17;3.73;;;7.40;46.20;;;;;;10382993;28;20225;-68
2022/11/13 05:29:53;;;;;;;12.67;3.87;;;7.40;46.00;;;;;;10377591;28;20780;-68
2022/11/13 05:34:56;;;;;;;12.70;3.63;;;7.30;45.80;;;;;;10383226;28;20230;-68
2022/11/13 05:39:59;;;;;;;3.67;3.37;;;7.20;45.80;;;;;;10377572;28;20222;-68
2022/11/13 05:45:04;;;;;;;3.77;3.47;;;7.20;46.00;;;;;;10375732;28;20218;-74
2022/11/13 05:50:10;;;;;;;3.83;3.50;;;7.10;46.00;;;;;;10382247;28;20724;-73
2022/11/13 05:55:13;;;;;;;4.30;4.00;;;7.10;46.20;;;;;;10378388;28;20257;-73
2022/11/13 06:00:19;;;;;;;8.13;3.63;;;7.10;46.20;;;;;;10385694;28;20229;-74
2022/11/13 06:05:22;;;;;;;4.77;3.40;;;7.00;46.10;;;;;;10383474;28;20244;-73
2022/11/13 06:10:25;;;;;;;33.03;4.10;;;7.00;46.10;;;;;;10379027;28;20234;-74
2022/11/13 06:15:30;;;;;;;3.83;3.50;;;7.00;46.00;;;;;;10383397;28;20859;-71
2022/11/13 06:20:34;;;;;;;5.57;4.10;;;6.90;46.00;;;;;;10390820;28;20283;-71
2022/11/13 06:25:37;;;;;;;6.73;4.17;;;6.90;46.00;;;;;;10387889;28;20237;-71
2022/11/13 06:30:41;;;;;;;3.63;3.40;;;6.80;46.10;;;;;;10386575;28;20229;-71
2022/11/13 06:35:44;;;;;;;3.50;3.30;;;6.80;46.20;;;;;;10389220;28;20225;-71
2022/11/13 06:40:48;;;;;;;3.80;3.50;;;6.80;46.40;;;;;;10385979;28;20217;-71
2022/11/13 06:45:52;;;;;;;3.17;2.97;;;6.80;47.20;;;;;;10383496;28;20343;-71
2022/11/13 06:50:55;;;;;;;3.93;3.53;;;6.80;46.50;;;;;;10391228;28;20222;-74
2022/11/13 06:56:00;;;;;;;3.30;3.10;;;6.80;46.60;;;;;;10388442;28;20808;-73
2022/11/13 07:01:07;;;;;;;3.40;3.10;;;6.80;46.50;;;;;;10383828;28;20257;-73
2022/11/13 07:06:13;;;;;;;5.43;3.47;;;6.90;46.60;;;;;;10386584;28;20229;-70
2022/11/13 07:11:18;;;;;;;3.63;3.43;;;6.90;46.70;;;;;;10387545;28;20226;-70
2022/11/13 07:16:23;;;;;;;3.60;3.30;;;6.90;46.50;;;;;;10381244;28;20242;-70
2022/11/13 07:21:26;;;;;;;3.70;3.40;;;6.90;46.50;;;;;;10386804;28;20296;-74
2022/11/13 07:26:29;;;;;;;4.50;3.70;;;6.90;46.50;;;;;;10386270;28;20241;-70
2022/11/13 07:31:34;;;;;;;4.57;3.40;;;6.90;46.70;;;;;;10381066;28;20234;-68
2022/11/13 07:36:37;;;;;;;3.80;3.50;;;6.90;46.70;;;;;;10387375;28;20221;-76
2022/11/13 07:41:40;;;;;;;3.70;3.40;;;6.90;46.70;;;;;;10385703;28;20217;-75
2022/11/13 07:46:44;;;;;;;3.90;3.60;;;6.90;46.90;;;;;;10384014;28;20722;-68
2022/11/13 07:51:48;;;;;;;3.30;3.10;;;6.90;47.40;;;;;;10383591;28;20213;-69
2022/11/13 07:56:51;;;;;;;3.63;3.37;;;7.00;47.70;;;;;;10378367;28;20249;-73
2022/11/13 08:01:55;;;;;;;3.87;3.57;;;7.10;48.00;;;;;;10379547;28;20218;-72
2022/11/13 08:06:58;;;;;;;3.50;3.23;;;7.20;48.20;;;;;;10379882;28;20790;-72
2022/11/13 08:12:01;;;;;;;3.70;3.40;;;7.40;48.00;;;;;;10384991;28;20233;-72
2022/11/13 08:17:06;;;;;;;3.90;3.60;;;7.50;47.90;;;;;;10381960;28;20236;-72
2022/11/13 08:22:09;;;;;;;4.07;3.73;;;7.60;47.80;;;;;;10384081;28;20234;-71
2022/11/13 08:27:12;;;;;;;4.00;3.70;;;7.60;47.50;;;;;;10380292;28;20237;-72
2022/11/13 08:32:18;;;;;;;3.60;3.33;;;7.80;47.60;;;;;;10379718;28;20834;-71
2022/11/13 08:37:21;;;;;;;3.63;3.33;;;7.80;47.70;;;;;;10375276;28;21815;-71
2022/11/13 08:42:24;;;;;;;4.03;3.73;;;7.90;48.00;;;;;;10371649;28;20226;-72
2022/11/13 08:47:29;;;;;;;3.87;3.57;;;8.00;48.10;;;;;;10374568;28;20291;-71
2022/11/13 08:52:32;;;;;;;3.93;3.53;;;8.20;48.30;;;;;;10374222;28;20222;-71
2022/11/13 08:57:35;;;;;;;3.70;3.40;;;8.40;48.70;;;;;;10382158;28;20235;-72
2022/11/13 09:02:40;;;;;;;3.57;3.30;;;8.60;49.00;;;;;;10383336;28;20234;-71
2022/11/13 09:07:43;;;;;;;3.63;3.43;;;8.80;48.80;;;;;;10385245;28;20241;-71
2022/11/13 09:12:46;;;;;;;3.40;3.10;;;9.00;49.00;;;;;;10377527;28;20238;-71
2022/11/13 09:17:51;;;;;;;3.47;3.17;;;9.20;49.10;;;;;;10383994;28;20230;-70
2022/11/13 09:22:58;;;;;;;3.23;3.03;;;9.40;49.20;;;;;;10376753;28;20226;-69
2022/11/13 09:28:02;;;;;;;3.80;3.47;;;9.60;49.00;;;;;;10374433;28;20223;-68
2022/11/13 09:33:07;;;;;;;3.60;3.30;;;9.90;49.40;;;;;;10383055;28;20229;-74
2022/11/13 09:38:13;;;;;;;3.30;3.10;;;10.10;48.00;;;;;;10378643;28;20233;-70
2022/11/13 09:43:31;;;;;;;3.20;3.00;;;10.30;47.90;;;;;;10371322;28;20233;-70
2022/11/13 09:48:38;;;;;;;3.63;3.33;;;10.60;47.20;;;;;;10375410;28;20575;-67
2022/11/13 09:53:42;;;;;;;3.37;3.17;;;10.70;47.10;;;;;;10376347;28;20229;-68
2022/11/13 09:58:51;;;;;;;3.07;2.87;;;10.90;47.60;;;;;;10370032;28;20277;-68
2022/11/13 10:04:02;;;;;;;3.20;3.00;;;11.10;46.90;;;;;;10372716;28;20618;-68
2022/11/13 10:09:18;;;;;;;3.40;3.10;;;11.30;46.90;;;;;;10369145;28;20221;-68
2022/11/13 10:14:27;;;;;;;3.33;3.03;;;11.40;47.00;;;;;;10368778;28;20283;-71
2022/11/13 10:19:37;;;;;;;3.33;3.10;;;11.60;47.10;;;;;;10370117;28;20222;-71
2022/11/13 10:24:42;;;;;;;5.50;3.27;;;11.80;46.80;;;;;;10366574;28;20266;-72
2022/11/13 10:29:46;;;;;;;3.93;3.60;;;12.00;47.30;;;;;;10367794;28;20222;-72
2022/11/13 10:35:11;;;;;;;3.70;3.40;;;12.10;47.60;;;;;;10368096;28;20970;-68
2022/11/13 10:40:24;;;;;;;4.23;3.83;;;12.30;46.90;;;;;;10370015;28;20218;-75
2022/11/13 10:45:27;;;;;;;4.60;4.20;;;12.60;46.40;;;;;;10369720;28;20242;-75
2022/11/13 10:50:33;;;;;;;3.97;3.67;;;12.80;47.30;;;;;;10368800;28;20233;-68
2022/11/13 10:55:39;;;;;;;3.87;3.57;;;13.10;46.60;;;;;;10366561;28;20719;-76
2022/11/13 11:00:46;;;;;;;3.20;3.00;;;13.30;46.40;;;;;;10381927;28;20229;-73
2022/11/13 11:05:55;;;;;;;3.50;3.20;;;13.50;46.90;;;;;;10386412;28;20252;-76
2022/11/13 11:16:24;;;;;;;3.90;3.50;;;13.80;45.90;;;;;;10385142;28;20588;-76
2022/11/13 11:21:35;;;;;;;3.90;3.50;;;14.00;45.80;;;;;;10380253;28;20229;-76
2022/11/13 11:26:42;;;;;;;3.30;3.10;;;14.10;44.80;;;;;;10390211;28;20244;-76
2022/11/13 11:31:50;;;;;;;3.47;3.20;;;14.10;44.80;;;;;;10381774;28;20222;-69
2022/11/13 11:37:03;;;;;;;3.63;3.33;;;14.20;44.80;;;;;;10381766;28;20226;-71
2022/11/13 11:42:19;;;;;;;3.57;3.30;;;14.30;43.70;;;;;;10381460;28;20222;-75
2022/11/13 11:47:22;;;;;;;3.73;3.43;;;14.40;43.80;;;;;;10383400;28;20308;-75
2022/11/13 11:52:50;;;;;;;4.20;3.80;;;14.50;45.30;;;;;;10381370;28;20237;-75
2022/11/13 11:57:59;;;;;;;3.60;3.30;;;14.70;44.10;;;;;;10388547;28;20241;-69
2022/11/13 12:03:26;;;;;;;3.77;3.47;;;14.80;44.20;;;;;;10378845;28;20888;-71
2022/11/13 12:08:43;;;;;;;4.00;3.70;;;14.90;43.50;;;;;;10377171;28;20252;-70
2022/11/13 12:13:56;;;;;;;3.77;3.47;;;15.00;42.90;;;;;;10380856;28;20273;-75
2022/11/13 12:19:04;;;;;;;3.90;3.60;;;15.10;43.50;;;;;;10381228;28;20255;-75
2022/11/13 12:24:41;;;;;;;4.30;3.90;;;15.20;43.60;;;;;;10376630;28;20226;-75
2022/11/13 12:29:58;;;;;;;4.23;3.90;;;15.20;42.30;;;;;;10370287;28;20222;-75
2022/11/13 12:35:07;;;;;;;4.23;3.93;;;15.30;41.90;;;;;;10378705;28;20660;-71
2022/11/13 12:40:19;;;;;;;4.90;4.37;;;15.30;42.70;;;;;;10383145;28;20234;-69
2022/11/13 12:45:30;;;;;;;4.37;4.07;;;15.30;41.80;;;;;;10376286;28;20242;-69
2022/11/13 12:50:34;;;;;;;4.67;4.27;;;15.30;42.50;;;;;;10378337;28;20240;-71
2022/11/13 12:55:40;;;;;;;4.27;3.87;;;15.30;43.70;;;;;;10375773;28;20717;-72
2022/11/13 13:00:53;;;;;;;4.77;4.20;;;15.30;42.60;;;;;;10375900;28;20777;-69
2022/11/13 13:06:17;;;;;;;4.60;4.20;;;15.30;41.60;;;;;;10382536;28;20265;-69
2022/11/13 13:11:31;;;;;;;4.53;4.13;;;15.30;42.00;;;;;;10384247;28;20221;-75
2022/11/13 13:16:34;;;;;;;4.30;4.00;;;15.40;42.30;;;;;;10381693;28;20313;-76
2022/11/13 13:21:42;;;;;;;4.67;4.27;;;15.40;43.30;;;;;;10381117;28;20225;-75
2022/11/13 13:26:47;;;;;;;4.77;4.30;;;15.40;41.90;;;;;;10376465;28;20222;-75
2022/11/13 13:31:57;;;;;;;4.33;4.03;;;15.40;42.50;;;;;;10383120;28;20218;-75
2022/11/13 13:37:10;;;;;;;4.40;4.10;;;15.40;42.00;;;;;;10383838;28;20228;-75
2022/11/13 13:42:42;;;;;;;4.67;4.23;;;15.40;42.00;;;;;;10381077;28;20255;-75
2022/11/13 13:47:47;;;;;;;4.53;3.73;;;15.50;42.10;;;;;;10378625;28;20221;-76
2022/11/13 13:52:52;;;;;;;4.20;3.80;;;15.50;42.70;;;;;;10378886;28;20269;-76
2022/11/13 13:58:01;;;;;;;4.23;3.83;;;15.60;43.50;;;;;;10374995;28;20654;-76
2022/11/13 14:03:18;;;;;;;4.43;4.10;;;15.60;42.50;;;;;;10377192;28;20933;-75
2022/11/13 14:08:24;;;;;;;4.00;3.70;;;15.60;41.70;;;;;;10385000;28;20762;-76
2022/11/13 14:13:29;;;;;;;3.77;3.47;;;15.60;42.60;;;;;;10379888;28;20322;-74
2022/11/13 14:18:33;;;;;;;3.57;3.27;;;15.60;42.20;;;;;;10381831;28;20230;-75
2022/11/13 14:23:41;;;;;;;3.60;3.30;;;15.60;43.30;;;;;;10375678;28;21185;-75
2022/11/13 14:28:52;;;;;;;3.87;3.57;;;15.60;42.30;;;;;;10375754;28;20229;-75
2022/11/13 14:33:57;;;;;;;4.10;3.80;;;15.70;42.10;;;;;;10375388;28;20234;-75
2022/11/13 14:39:00;;;;;;;4.43;4.13;;;15.60;42.50;;;;;;10386240;28;20228;-75
2022/11/13 14:44:05;;;;;;;3.90;3.60;;;15.60;42.60;;;;;;10388039;28;20229;-75
2022/11/13 14:49:14;;;;;;;3.93;3.63;;;15.60;42.40;;;;;;10386500;28;20229;-70
2022/11/13 14:54:29;;;;;;;3.90;3.60;;;15.60;41.90;;;;;;10386953;28;20611;-69
2022/11/13 14:59:54;;;;;;;3.50;3.20;;;15.60;41.60;;;;;;10381696;28;20221;-75
2022/11/13 15:04:57;;;;;;;3.80;3.30;;;15.50;42.20;;;;;;10387239;28;20236;-70
2022/11/13 15:10:01;;;;;;;3.50;3.13;;;15.50;42.40;;;;;;10381088;28;20232;-67
2022/11/13 15:15:06;;;;;;;3.67;3.00;;;15.40;42.40;;;;;;10382038;28;20229;-69
2022/11/13 15:20:15;;;;;;;3.10;2.90;;;15.40;42.70;;;;;;10384703;28;20225;-72
2022/11/13 15:25:21;;;;;;;3.20;3.00;;;15.40;41.90;;;;;;10385299;28;20241;-68
2022/11/13 15:30:25;;;;;;;3.60;3.33;;;15.30;42.20;;;;;;10381635;28;20230;-68
2022/11/13 15:35:28;;;;;;;3.67;3.27;;;15.30;41.80;;;;;;10372947;28;20222;-68
2022/11/13 15:40:32;;;;;;;3.80;3.40;;;15.20;42.00;;;;;;10383132;28;20222;-72
2022/11/13 15:45:38;;;;;;;4.13;3.77;;;15.10;42.00;;;;;;10379996;28;20508;-72
2022/11/13 15:50:46;;;;;;;8.13;7.33;;;15.00;41.60;;;;;;10381390;28;20741;-72
2022/11/13 15:55:49;;;;;;;9.03;8.13;;;14.90;41.80;;;;;;10382821;28;20222;-72
2022/11/13 16:00:54;;;;;;;9.03;8.13;;;14.90;41.70;;;;;;10383359;28;20226;-73
2022/11/13 16:05:58;;;;;;;8.17;7.47;;;14.70;41.30;;;;;;10383591;28;20257;-69
2022/11/13 16:11:01;;;;;;;7.73;6.60;;;14.60;41.30;;;;;;10386658;28;20308;-69
2022/11/13 16:16:08;;;;;;;7.90;7.20;;;14.40;41.40;;;;;;10386424;28;20214;-70
2022/11/13 16:21:13;;;;;;;10.27;8.53;;;14.30;41.10;;;;;;10381908;28;20300;-69
2022/11/13 16:26:20;;;;;;;7.07;6.43;;;14.10;41.00;;;;;;10383573;28;20818;-70
2022/11/13 16:31:24;;;;;;;7.50;6.80;;;14.00;40.90;;;;;;10378689;28;20741;-69
2022/11/13 16:36:27;;;;;;;6.90;6.30;;;13.90;40.80;;;;;;10377891;28;20700;-69
2022/11/13 16:41:32;;;;;;;7.17;6.47;;;13.70;41.00;;;;;;10377140;28;20780;-69
2022/11/13 16:46:40;;;;;;;6.37;5.80;;;13.60;41.00;;;;;;10377462;28;20241;-69
2022/11/13 16:51:44;;;;;;;6.43;5.83;;;13.40;40.80;;;;;;10380431;28;20226;-69
2022/11/13 16:56:47;;;;;;;6.10;5.50;;;13.30;41.30;;;;;;10380627;28;20230;-72
2022/11/13 17:01:55;;;;;;;5.50;5.00;;;13.20;41.20;;;;;;10381321;28;20782;-72
2022/11/13 17:06:58;;;;;;;5.43;4.93;;;13.10;41.10;;;;;;10384071;28;20230;-72
2022/11/13 17:12:02;;;;;;;4.83;4.43;;;13.00;41.50;;;;;;10378213;28;20225;-71
2022/11/13 17:17:10;;;;;;;4.87;4.47;;;12.80;41.60;;;;;;10376172;28;20226;-70
2022/11/13 17:22:15;;;;;;;5.07;4.63;;;12.70;41.50;;;;;;10376275;28;20241;-69
2022/11/13 17:27:19;;;;;;;4.70;4.30;;;12.60;41.60;;;;;;10381153;28;20221;-68
2022/11/13 17:32:24;;;;;;;5.60;5.10;;;12.60;42.60;;;;;;10377863;28;20698;-69
2022/11/13 17:37:27;;;;;;;5.00;4.50;;;12.50;41.80;;;;;;10384997;28;20250;-69
2022/11/13 17:42:30;;;;;;;5.00;4.60;;;12.40;41.90;;;;;;10383487;28;20584;-69
2022/11/13 17:47:35;;;;;;;5.70;5.10;;;12.40;41.80;;;;;;10374489;28;20363;-69
2022/11/13 17:52:38;;;;;;;5.10;4.60;;;12.30;41.50;;;;;;10375698;28;20229;-69
2022/11/13 17:57:41;;;;;;;4.20;3.90;;;12.30;42.00;;;;;;10373901;28;20734;-70
2022/11/13 18:02:46;;;;;;;5.17;4.10;;;12.20;41.90;;;;;;10381241;28;20229;-70
2022/11/13 18:07:49;;;;;;;5.37;4.87;;;12.10;43.10;;;;;;10380939;28;20215;-70
2022/11/13 18:12:52;;;;;;;9.57;6.13;;;12.10;42.20;;;;;;10380829;28;20276;-70
2022/11/13 18:17:57;;;;;;;7.03;6.20;;;12.10;41.80;;;;;;10376542;28;20230;-70
2022/11/13 18:23:01;;;;;;;6.33;5.73;;;12.10;41.80;;;;;;10379469;28;20734;-70
2022/11/13 18:28:04;;;;;;;7.37;6.67;;;12.00;41.70;;;;;;10381057;28;20214;-71
2022/11/13 18:33:09;;;;;;;7.07;6.43;;;12.00;41.70;;;;;;10371191;28;20234;-70
2022/11/13 18:38:12;;;;;;;6.80;6.20;;;11.90;41.60;;;;;;10374930;28;20268;-70
2022/11/13 18:43:15;;;;;;;7.40;6.63;;;11.80;41.50;;;;;;10381288;28;20737;-70
2022/11/13 18:48:19;;;;;;;7.20;6.60;;;11.80;41.60;;;;;;10376264;28;20273;-71
2022/11/13 18:53:23;;;;;;;8.10;7.30;;;11.70;41.40;;;;;;10373275;28;20245;-70
2022/11/13 18:58:26;;;;;;;7.13;6.40;;;11.70;41.40;;;;;;10376523;28;20249;-70
2022/11/13 19:03:31;;;;;;;6.90;6.30;;;11.60;41.30;;;;;;10375460;28;20742;-70
2022/11/13 19:08:34;;;;;;;8.20;7.40;;;11.50;41.30;;;;;;10377793;28;20229;-70
2022/11/13 19:13:45;;;;;;;8.60;7.80;;;11.40;41.20;;;;;;10377272;28;20230;-70
2022/11/13 19:18:53;;;;;;;9.10;8.20;;;11.40;41.20;;;;;;10382055;28;20238;-70
2022/11/13 19:23:57;;;;;;;9.37;8.47;;;11.30;41.10;;;;;;10381444;28;20229;-70
2022/11/13 19:29:00;;;;;;;9.10;8.30;;;11.20;41.00;;;;;;10376483;28;20300;-70
2022/11/13 19:34:07;;;;;;;8.50;7.70;;;11.00;40.80;;;;;;10382018;28;20615;-70
2022/11/13 19:39:14;;;;;;;8.00;7.13;;;11.00;40.80;;;;;;10376323;28;20233;-69
2022/11/13 19:44:17;;;;;;;7.23;6.60;;;10.90;41.30;;;;;;10381652;28;20244;-70
2022/11/13 19:49:22;;;;;;;7.37;6.67;;;10.80;41.20;;;;;;10383064;28;20369;-70
2022/11/13 19:54:25;;;;;;;9.20;8.23;;;10.70;41.60;;;;;;10384009;28;20238;-70
2022/11/13 19:59:30;;;;;;;9.93;9.03;;;10.60;41.50;;;;;;10383975;28;20238;-70
2022/11/13 20:04:35;;;;;;;11.50;10.40;;;10.60;41.30;;;;;;10384933;28;20253;-70
2022/11/13 20:09:38;;;;;;;10.13;9.23;;;10.50;41.30;;;;;;10384744;28;20230;-70
2022/11/13 20:14:41;;;;;;;11.00;10.00;;;10.40;41.30;;;;;;10383509;28;20229;-70
2022/11/13 20:19:46;;;;;;;12.57;11.27;;;10.40;41.20;;;;;;10383894;28;20236;-70
2022/11/13 20:24:49;;;;;;;13.87;12.57;;;10.30;41.10;;;;;;10385828;28;20225;-70
2022/11/13 20:29:53;;;;;;;12.67;11.37;;;10.30;41.30;;;;;;10383634;28;20229;-70
2022/11/13 20:34:58;;;;;;;12.00;10.90;;;10.20;41.10;;;;;;10375881;28;20975;-70
2022/11/13 20:40:01;;;;;;;15.83;11.70;;;10.20;40.80;;;;;;10383482;28;20272;-70
2022/11/13 20:45:05;;;;;;;12.77;11.57;;;10.10;41.00;;;;;;10380911;28;20643;-70
2022/11/13 20:50:10;;;;;;;11.20;10.20;;;10.10;41.00;;;;;;10381990;28;20288;-70
2022/11/13 20:55:13;;;;;;;11.33;10.27;;;10.00;40.80;;;;;;10382123;28;20234;-70
2022/11/13 21:00:17;;;;;;;12.73;11.43;;;9.90;41.90;;;;;;10389874;28;20222;-70
2022/11/13 21:05:21;;;;;;;13.20;11.77;;;9.90;41.50;;;;;;10378765;28;20625;-70
2022/11/13 21:10:25;;;;;;;12.23;11.03;;;9.80;41.40;;;;;;10384968;28;20299;-70
2022/11/13 21:15:28;;;;;;;11.27;10.20;;;9.70;41.40;;;;;;10381884;28;20241;-70
2022/11/13 21:20:33;;;;;;;10.53;9.50;;;9.60;41.60;;;;;;10381280;28;20222;-70
2022/11/13 21:25:36;;;;;;;12.50;10.87;;;9.50;41.50;;;;;;10382630;28;20217;-69
2022/11/13 21:30:39;;;;;;;10.23;9.23;;;9.40;41.40;;;;;;10381204;28;20236;-69
2022/11/13 21:35:43;;;;;;;9.03;8.20;;;9.30;41.70;;;;;;10377777;28;20229;-69
2022/11/13 21:41:20;;;;;;;16.17;12.57;;;9.20;41.80;;;;;;10382369;28;20226;-69
2022/11/13 21:46:11;;;;;;;16.87;13.20;;;9.10;41.90;;;;;;10376893;28;20789;-69
2022/11/13 21:51:15;;;;;;;15.47;11.40;;;9.10;41.90;;;;;;10379464;28;20221;-69
2022/11/13 21:56:19;;;;;;;18.07;12.87;;;9.00;41.80;;;;;;10381593;28;20744;-69
2022/11/13 22:01:23;;;;;;;17.83;13.37;;;8.90;41.70;;;;;;10380005;28;20300;-69
2022/11/13 22:06:29;;;;;;;17.80;12.53;;;8.90;41.80;;;;;;10379884;28;20784;-69
2022/11/13 22:11:34;;;;;;;12.03;10.40;;;8.80;41.80;;;;;;10381990;28;20230;-69
2022/11/13 22:16:39;;;;;;;8.70;7.90;;;8.80;42.00;;;;;;10378595;28;20601;-69
2022/11/13 22:21:45;;;;;;;8.03;7.30;;;8.80;41.80;;;;;;10378992;28;20253;-69
2022/11/13 22:26:48;;;;;;;8.73;7.83;;;8.70;41.90;;;;;;10380494;28;20241;-69
2022/11/13 22:31:51;;;;;;;8.37;7.57;;;8.70;42.00;;;;;;10377968;28;20233;-70
2022/11/13 22:36:55;;;;;;;10.03;9.23;;;8.70;42.00;;;;;;10381236;28;20221;-69
2022/11/13 22:41:58;;;;;;;9.93;8.93;;;8.60;41.70;;;;;;10382430;28;21070;-70
2022/11/13 22:47:01;;;;;;;9.30;8.43;;;8.60;41.80;;;;;;10379887;28;20229;-69
2022/11/13 22:52:06;;;;;;;7.63;7.03;;;8.50;41.80;;;;;;10376727;28;20624;-70
2022/11/13 22:57:09;;;;;;;8.80;8.00;;;8.40;42.00;;;;;;10384350;28;20236;-69
2022/11/13 23:02:12;;;;;;;8.80;7.90;;;8.40;42.00;;;;;;10385898;28;20237;-69
2022/11/13 23:07:17;;;;;;;19.37;9.73;;;8.40;42.00;;;;;;10386366;28;20234;-69
2022/11/13 23:12:21;;;;;;;15.97;9.50;;;8.30;42.20;;;;;;10386119;28;20827;-69
2022/11/13 23:17:24;;;;;;;14.53;10.10;;;8.10;42.30;;;;;;10385464;28;20291;-69
2022/11/13 23:22:28;;;;;;;14.63;9.53;;;7.90;42.70;;;;;;10382900;28;20241;-69
2022/11/13 23:27:32;;;;;;;29.07;9.57;;;7.70;43.50;;;;;;10388082;28;20304;-69
2022/11/13 23:32:35;;;;;;;10.73;9.53;;;7.60;43.60;;;;;;10384343;28;20226;-69
2022/11/13 23:37:40;;;;;;;42.50;10.27;;;7.50;43.90;;;;;;10391504;28;20307;-69
2022/11/13 23:42:43;;;;;;;18.97;9.20;;;7.50;44.40;;;;;;10388989;28;20256;-69
2022/11/13 23:47:57;;;;;;;25.60;10.03;;;7.50;44.30;;;;;;10389493;28;20223;-69
2022/11/13 23:53:02;;;;;;;9.57;8.67;;;7.50;44.40;;;;;;10386851;28;20241;-69
2022/11/13 23:58:09;;;;;;;12.77;7.50;;;7.60;45.50;;;;;;10384462;28;20221;-70
